Time;durP1;ratioP1;P1;durP2;ratioP2;P2;SDS_P1;SDS_P2;PMS_P1;PMS_P2;Temp;Humidity;BMP_temperature;BMP_pressure;BME280_temperature;BME280_humidity;BME280_pressure;Samples;Min_cycle;Max_cycle;Signal;HPM_P1;HPM_P2
2021/12/05 00:22:12;;;;;;;12.05;6.13;;;5.30;99.90;;;;;;5129661;27;20050;-80
2021/12/05 00:24:43;;;;;;;13.00;7.03;;;5.30;99.90;;;;;;5135982;27;20134;-79
2021/12/05 00:27:16;;;;;;;12.55;6.50;;;5.20;99.90;;;;;;5139098;27;20047;-79
2021/12/05 00:32:32;;;;;;;9.00;5.85;;;5.20;99.90;;;;;;5139055;27;20047;-77
2021/12/05 00:46:03;;;;;;;10.60;6.35;;;5.20;99.90;;;;;;5139965;27;20046;-79
2021/12/05 00:48:58;;;;;;;9.60;6.28;;;5.20;99.90;;;;;;5129165;27;20046;-79
2021/12/05 01:09:52;;;;;;;8.70;6.05;;;5.20;99.90;;;;;;5134970;27;20111;-79
2021/12/05 01:17:34;;;;;;;8.90;5.53;;;5.20;99.90;;;;;;5137669;27;20047;-78
2021/12/05 01:20:04;;;;;;;9.38;5.32;;;5.20;99.90;;;;;;5122886;27;20095;-78
2021/12/05 01:22:33;;;;;;;7.78;5.25;;;5.20;99.90;;;;;;5151769;27;20105;-79
2021/12/05 01:30:04;;;;;;;8.07;5.32;;;5.20;99.90;;;;;;5148948;27;20042;-79
2021/12/05 01:35:37;;;;;;;8.90;4.70;;;4.80;99.90;;;;;;5142399;27;20047;-79
2021/12/05 01:38:13;;;;;;;9.40;4.90;;;5.10;99.90;;;;;;5129071;27;20051;-78
2021/12/05 02:08:19;;;;;;;9.30;4.47;;;5.00;99.90;;;;;;5140643;27;20057;-79
2021/12/05 02:30:11;;;;;;;6.57;4.22;;;5.10;99.90;;;;;;5122918;27;20914;-79
2021/12/05 02:40:52;;;;;;;6.60;4.47;;;5.20;99.90;;;;;;5150056;27;20046;-79
2021/12/05 02:43:34;;;;;;;6.03;4.60;;;5.20;99.90;;;;;;5150765;27;20047;-80
2021/12/05 02:46:03;;;;;;;9.25;4.85;;;5.20;99.90;;;;;;5143520;27;20074;-79
2021/12/05 02:48:31;;;;;;;5.70;4.05;;;5.20;99.90;;;;;;5139987;27;20069;-79
2021/12/05 02:51:01;;;;;;;5.47;3.80;;;5.20;99.90;;;;;;5121374;27;20058;-79
2021/12/05 02:53:40;;;;;;;7.53;5.35;;;5.20;99.90;;;;;;5141088;27;20503;-79
2021/12/05 02:56:07;;;;;;;5.88;4.80;;;5.20;99.90;;;;;;5124902;27;20443;-79
2021/12/05 03:01:18;;;;;;;6.50;4.65;;;5.20;99.90;;;;;;5140347;27;20258;-79
2021/12/05 03:03:43;;;;;;;9.10;4.75;;;5.10;99.90;;;;;;5130111;27;20047;-79
2021/12/05 03:06:23;;;;;;;8.98;5.35;;;5.10;99.90;;;;;;5134483;27;20047;-79
2021/12/05 03:08:56;;;;;;;6.95;4.10;;;5.10;99.90;;;;;;5139648;27;20057;-79
2021/12/05 03:11:22;;;;;;;;;;;5.10;99.90;;;;;;5140596;27;20055;-80
2021/12/05 03:13:48;;;;;;;9.63;5.18;;;5.10;99.90;;;;;;5121376;27;20293;-79
2021/12/05 03:16:16;;;;;;;7.60;4.93;;;5.10;99.90;;;;;;5118965;27;20034;-80
2021/12/05 03:18:42;;;;;;;13.68;5.72;;;5.10;99.90;;;;;;5119076;27;20050;-79
2021/12/05 03:21:08;;;;;;;10.73;5.55;;;5.10;99.90;;;;;;5119979;27;20038;-79
2021/12/05 03:23:40;;;;;;;10.15;4.30;;;5.10;99.90;;;;;;5119076;27;20325;-79
2021/12/05 03:26:08;;;;;;;8.85;4.82;;;5.20;99.90;;;;;;5138143;27;20044;-79
2021/12/05 03:28:34;;;;;;;9.68;5.53;;;5.20;99.90;;;;;;5138415;27;20042;-79
2021/12/05 03:31:00;;;;;;;9.65;5.28;;;5.10;99.90;;;;;;5119218;27;20041;-79
2021/12/05 03:33:25;;;;;;;15.05;6.18;;;5.20;99.90;;;;;;5138488;27;20088;-79
2021/12/05 03:35:51;;;;;;;9.10;5.70;;;5.20;99.90;;;;;;5119990;27;20143;-79
2021/12/05 03:38:17;;;;;;;12.77;6.95;;;5.20;99.90;;;;;;5137602;27;20057;-78
2021/12/05 03:40:43;;;;;;;13.23;5.82;;;5.20;99.90;;;;;;5137961;27;20826;-78
2021/12/05 03:43:10;;;;;;;8.32;5.53;;;5.10;99.90;;;;;;5119416;27;20046;-79
2021/12/05 03:45:41;;;;;;;9.35;6.22;;;5.10;99.90;;;;;;5137280;27;20873;-79
2021/12/05 03:48:08;;;;;;;15.02;7.03;;;5.10;99.90;;;;;;5133505;27;20419;-79
2021/12/05 03:50:34;;;;;;;12.25;7.35;;;5.10;99.90;;;;;;5118293;27;20043;-79
2021/12/05 03:53:00;;;;;;;9.88;7.13;;;5.00;99.90;;;;;;5136659;27;20047;-79
2021/12/05 03:55:26;;;;;;;12.98;7.60;;;5.10;99.90;;;;;;5119639;27;20049;-79
2021/12/05 03:57:52;;;;;;;13.38;7.65;;;5.00;99.90;;;;;;5118440;27;20838;-79
2021/12/05 04:00:26;;;;;;;13.75;8.20;;;5.10;99.90;;;;;;5119581;27;20091;-78
2021/12/05 04:02:53;;;;;;;11.10;7.88;;;5.20;99.90;;;;;;5121865;27;20128;-79
2021/12/05 04:05:20;;;;;;;11.45;7.32;;;5.10;99.90;;;;;;5122193;27;20079;-79
2021/12/05 04:07:46;;;;;;;11.43;8.40;;;5.10;99.90;;;;;;5142124;27;20051;-79
2021/12/05 04:10:12;;;;;;;14.52;8.95;;;5.00;99.90;;;;;;5142344;27;20376;-79
2021/12/05 04:12:38;;;;;;;15.68;9.07;;;5.00;99.90;;;;;;5123049;27;20125;-79
2021/12/05 04:15:06;;;;;;;11.45;8.20;;;5.00;99.90;;;;;;5139759;27;20807;-79
2021/12/05 04:17:31;;;;;;;20.67;9.02;;;5.00;99.90;;;;;;5142791;27;20051;-79
2021/12/05 04:19:57;;;;;;;10.90;7.55;;;5.00;99.90;;;;;;5122617;27;20045;-78
2021/12/05 04:22:23;;;;;;;10.32;7.72;;;5.00;99.90;;;;;;5141282;27;20069;-79
2021/12/05 04:24:49;;;;;;;15.35;8.60;;;5.00;99.90;;;;;;5123287;27;20119;-79
2021/12/05 04:27:15;;;;;;;16.40;9.30;;;5.00;99.90;;;;;;5141435;27;20084;-79
2021/12/05 04:29:41;;;;;;;11.93;8.13;;;5.00;99.90;;;;;;5141440;27;20702;-79
2021/12/05 04:32:07;;;;;;;12.55;8.00;;;5.00;99.90;;;;;;5122402;27;20051;-79
2021/12/05 04:34:33;;;;;;;13.80;7.65;;;4.90;99.90;;;;;;5140803;27;20046;-79
2021/12/05 04:36:59;;;;;;;15.07;9.73;;;5.00;99.90;;;;;;5122737;27;20923;-79
2021/12/05 04:39:28;;;;;;;13.13;9.07;;;4.90;99.90;;;;;;5141487;27;20047;-79
2021/12/05 04:41:55;;;;;;;14.90;8.93;;;5.00;99.90;;;;;;5122509;27;20779;-71
2021/12/05 04:44:22;;;;;;;14.48;8.48;;;5.10;99.90;;;;;;5136241;27;20042;-78
2021/12/05 04:46:49;;;;;;;14.88;9.02;;;4.90;99.90;;;;;;5129504;27;20050;-78
2021/12/05 04:49:15;;;;;;;19.25;9.07;;;4.90;99.90;;;;;;5140009;27;20049;-79
2021/12/05 04:51:43;;;;;;;12.75;7.78;;;4.90;99.90;;;;;;5140954;27;20734;-79
2021/12/05 04:54:11;;;;;;;18.13;8.20;;;5.00;99.90;;;;;;5140013;27;20053;-78
2021/12/05 04:56:38;;;;;;;10.82;7.90;;;4.90;99.90;;;;;;5140350;27;20046;-79
2021/12/05 04:59:12;;;;;;;13.98;8.43;;;4.90;99.90;;;;;;5140883;27;20034;-79
2021/12/05 05:01:40;;;;;;;11.98;8.70;;;4.90;99.90;;;;;;5139842;27;20857;-79
2021/12/05 05:04:12;;;;;;;15.77;7.88;;;4.90;99.90;;;;;;5140059;27;20227;-79
2021/12/05 05:06:38;;;;;;;18.73;7.20;;;4.80;99.90;;;;;;5121337;27;20054;-79
2021/12/05 05:09:04;;;;;;;17.08;8.73;;;4.80;99.90;;;;;;5139690;27;20821;-78
2021/12/05 05:11:30;;;;;;;16.65;7.43;;;4.80;99.90;;;;;;5121171;27;20386;-79
2021/12/05 05:13:56;;;;;;;17.15;8.20;;;4.80;99.90;;;;;;5140251;27;20045;-80
2021/12/05 05:16:24;;;;;;;14.35;6.90;;;4.70;99.90;;;;;;5122086;27;20154;-79
2021/12/05 05:18:57;;;;;;;11.75;7.57;;;4.70;99.90;;;;;;5122646;27;20103;-79
2021/12/05 05:50:25;;;;;;;10.20;6.55;;;4.60;99.90;;;;;;5141262;27;20051;-79
2021/12/05 05:52:51;;;;;;;21.38;7.00;;;4.60;99.90;;;;;;5123476;27;20053;-79
2021/12/05 05:55:17;;;;;;;11.82;6.18;;;4.60;99.90;;;;;;5141399;27;20047;-79
2021/12/05 06:03:23;;;;;;;10.40;5.57;;;4.60;99.90;;;;;;5097501;27;20111;-79
2021/12/05 06:06:05;;;;;;;10.65;6.45;;;4.60;99.90;;;;;;5134367;27;20150;-80
2021/12/05 06:08:34;;;;;;;8.30;4.38;;;4.60;99.90;;;;;;5116148;27;20055;-79
2021/12/05 06:11:09;;;;;;;12.32;6.07;;;4.60;99.90;;;;;;5129139;27;20082;-79
2021/12/05 06:13:36;;;;;;;11.52;5.65;;;4.70;99.90;;;;;;5141033;27;20043;-80
2021/12/05 06:16:02;;;;;;;8.07;5.63;;;4.60;99.90;;;;;;5124640;27;20049;-80
2021/12/05 06:18:29;;;;;;;15.10;6.53;;;4.70;99.90;;;;;;5123023;27;20057;-79
2021/12/05 06:20:56;;;;;;;14.85;5.35;;;4.60;99.90;;;;;;5121226;27;20039;-79
2021/12/05 06:23:21;;;;;;;8.88;5.45;;;4.60;99.90;;;;;;5120492;27;20059;-79
2021/12/05 06:25:50;;;;;;;7.85;5.45;;;4.60;99.90;;;;;;5139498;27;20743;-79
2021/12/05 06:28:18;;;;;;;11.00;6.45;;;4.70;99.90;;;;;;5139229;27;20057;-79
2021/12/05 06:30:50;;;;;;;10.57;5.88;;;4.70;99.90;;;;;;5120453;27;20842;-79
2021/12/05 06:46:31;;;;;;;11.13;5.93;;;4.70;99.90;;;;;;5125041;27;20774;-79
2021/12/05 06:48:57;;;;;;;7.95;5.25;;;4.70;99.90;;;;;;5121016;27;20066;-79
2021/12/05 06:51:25;;;;;;;8.63;6.15;;;4.70;99.90;;;;;;5139204;27;20042;-79
2021/12/05 06:53:52;;;;;;;9.55;5.47;;;4.70;99.90;;;;;;5139779;27;20042;-79
2021/12/05 06:56:18;;;;;;;7.75;4.38;;;4.70;99.90;;;;;;5138856;27;20043;-79
2021/12/05 06:58:44;;;;;;;13.45;5.50;;;4.70;99.90;;;;;;5140157;27;20038;-79
2021/12/05 07:01:11;;;;;;;11.68;5.75;;;5.60;99.90;;;;;;5139842;27;20043;-79
2021/12/05 07:03:39;;;;;;;7.05;4.88;;;4.70;99.90;;;;;;5139167;27;20051;-80
2021/12/05 07:06:17;;;;;;;10.20;5.00;;;4.70;99.90;;;;;;5121635;27;20066;-79
2021/12/05 07:08:43;;;;;;;13.57;5.80;;;4.70;99.90;;;;;;5120758;27;20647;-79
2021/12/05 07:11:23;;;;;;;8.10;5.57;;;4.60;99.90;;;;;;5140675;27;20042;-80
2021/12/05 07:21:48;;;;;;;8.45;4.90;;;4.60;99.90;;;;;;5140736;27;20790;-80
2021/12/05 07:40:26;;;;;;;7.57;5.38;;;4.50;99.90;;;;;;5143451;27;20083;-79
2021/12/05 07:43:15;;;;;;;11.75;7.00;;;4.50;99.90;;;;;;5121876;27;20039;-80
2021/12/05 07:45:56;;;;;;;15.98;7.75;;;4.50;99.90;;;;;;5118936;27;20073;-79
2021/12/05 07:48:28;;;;;;;7.00;5.50;;;4.50;99.90;;;;;;5125171;27;20058;-79
2021/12/05 07:51:09;;;;;;;15.02;6.10;;;4.50;99.90;;;;;;5144582;27;20067;-79
2021/12/05 07:53:49;;;;;;;10.82;6.57;;;4.50;99.90;;;;;;5143521;27;20046;-79
2021/12/05 07:56:21;;;;;;;14.82;6.70;;;4.50;99.90;;;;;;5136167;27;20039;-79
2021/12/05 08:14:22;;;;;;;9.43;6.18;;;4.50;99.90;;;;;;5135195;27;20051;-79
2021/12/05 08:15:15;;;;;;;11.55;7.13;;;4.60;99.90;;;;;;5137052;27;20801;-78
2021/12/05 08:17:49;;;;;;;12.00;7.38;;;4.70;99.90;;;;;;5136447;27;20058;-78
2021/12/05 08:20:16;;;;;;;10.38;6.78;;;4.70;99.90;;;;;;5137047;27;20038;-78
2021/12/05 08:22:41;;;;;;;15.18;7.03;;;4.70;99.90;;;;;;5137351;27;20047;-76
2021/12/05 08:25:12;;;;;;;12.07;7.38;;;4.80;99.90;;;;;;5116470;27;20072;-76
2021/12/05 08:27:42;;;;;;;11.32;6.82;;;4.80;99.90;;;;;;5136358;27;20325;-76
2021/12/05 08:30:12;;;;;;;11.75;7.30;;;4.90;99.90;;;;;;5135563;27;20095;-76
2021/12/05 08:38:51;;;;;;;16.35;7.32;;;5.00;99.90;;;;;;5126368;27;20046;-75
2021/12/05 09:22:02;;;;;;;10.70;6.40;;;5.40;99.90;;;;;;4780337;27;10001059;-78
2021/12/05 09:24:40;;;;;;;12.32;7.25;;;5.50;99.90;;;;;;5133812;27;20874;-78
2021/12/05 09:51:11;;;;;;;20.52;7.32;;;5.60;99.90;;;;;;5112174;27;20119;-77
2021/12/05 09:53:20;;;;;;;14.55;7.05;;;5.60;99.90;;;;;;5116153;27;20055;-75
2021/12/05 10:14:59;;;;;;;10.38;6.32;;;6.40;99.90;;;;;;5136492;27;20093;-77
2021/12/05 10:20:31;;;;;;;10.10;6.10;;;5.60;99.90;;;;;;5132984;27;20517;-77
2021/12/05 10:37:14;;;;;;;10.27;5.53;;;5.60;99.90;;;;;;5127928;27;20698;-72
2021/12/05 10:39:40;;;;;;;11.50;5.82;;;5.60;99.90;;;;;;5116914;27;20780;-72
2021/12/05 10:42:43;;;;;;;24.05;7.10;;;5.60;99.90;;;;;;5135347;27;20042;-72
2021/12/05 10:45:26;;;;;;;14.05;6.05;;;5.60;99.90;;;;;;5117381;27;20073;-72
2021/12/05 10:47:54;;;;;;;12.52;6.93;;;5.60;99.90;;;;;;5121576;27;20840;-72
2021/12/05 10:50:32;;;;;;;9.32;6.45;;;5.60;99.90;;;;;;5119144;27;20142;-72
2021/12/05 10:53:22;;;;;;;15.02;5.80;;;5.60;99.90;;;;;;5117257;27;20717;-72
2021/12/05 10:55:54;;;;;;;9.35;5.72;;;5.60;99.90;;;;;;5136526;27;20119;-72
2021/12/05 10:58:20;;;;;;;12.75;6.18;;;5.70;99.90;;;;;;5136842;27;20172;-76
2021/12/05 11:00:45;;;;;;;10.50;6.90;;;5.70;99.90;;;;;;5135349;27;20835;-77
2021/12/05 11:03:17;;;;;;;6.97;5.22;;;5.70;99.90;;;;;;5116436;27;20053;-77
2021/12/05 11:05:44;;;;;;;8.82;6.43;;;5.70;99.90;;;;;;5110593;27;20101;-77
2021/12/05 11:08:33;;;;;;;9.38;6.18;;;5.70;99.90;;;;;;5114548;27;20047;-77
2021/12/05 11:11:11;;;;;;;8.73;5.43;;;5.70;99.90;;;;;;5114285;27;20051;-77
2021/12/05 11:13:38;;;;;;;8.80;4.93;;;5.70;99.90;;;;;;5115496;27;20074;-77
2021/12/05 11:16:56;;;;;;;9.18;6.63;;;5.70;99.90;;;;;;5113143;27;20777;-77
2021/12/05 11:19:33;;;;;;;10.48;5.72;;;5.70;99.90;;;;;;5082161;27;20871;-76
2021/12/05 11:22:04;;;;;;;11.43;6.05;;;5.70;99.90;;;;;;5114505;27;20196;-76
2021/12/05 11:24:36;;;;;;;9.55;5.80;;;5.70;99.90;;;;;;5113332;27;20047;-77
2021/12/05 11:27:04;;;;;;;8.13;6.55;;;5.80;99.90;;;;;;5113594;27;20107;-76
2021/12/05 11:29:45;;;;;;;9.98;5.70;;;5.80;99.90;;;;;;5113998;27;20107;-78
2021/12/05 11:32:18;;;;;;;6.93;4.80;;;5.80;99.90;;;;;;5114895;27;20126;-77
2021/12/05 11:34:45;;;;;;;11.73;5.93;;;5.80;99.90;;;;;;5114691;27;20035;-77
2021/12/05 11:37:11;;;;;;;8.57;6.40;;;5.80;99.90;;;;;;5113554;28;20691;-77
2021/12/05 11:39:37;;;;;;;14.90;5.35;;;5.80;99.90;;;;;;5113189;27;20043;-77
2021/12/05 11:42:11;;;;;;;13.27;6.93;;;5.80;99.90;;;;;;5112088;28;20086;-76
2021/12/05 11:44:37;;;;;;;9.88;6.07;;;5.80;99.90;;;;;;5100027;28;20047;-76
2021/12/05 11:47:15;;;;;;;11.73;7.82;;;5.80;99.90;;;;;;5114411;28;20586;-77
2021/12/05 11:49:41;;;;;;;10.48;5.47;;;5.90;99.90;;;;;;5114082;28;20654;-75
2021/12/05 11:52:08;;;;;;;7.53;5.30;;;5.90;99.90;;;;;;5114697;27;20107;-77
2021/12/05 11:54:37;;;;;;;11.93;6.25;;;5.80;99.90;;;;;;5115028;27;20822;-77
2021/12/05 11:57:11;;;;;;;11.63;6.43;;;5.80;99.90;;;;;;5101215;27;20043;-78
2021/12/05 11:59:54;;;;;;;12.10;6.05;;;5.80;99.90;;;;;;5116625;28;20047;-71
2021/12/05 12:02:33;;;;;;;9.40;6.30;;;5.80;99.90;;;;;;5115986;27;20050;-77
2021/12/05 12:05:04;;;;;;;11.20;5.68;;;5.80;99.90;;;;;;5120846;27;20069;-77
2021/12/05 12:07:53;;;;;;;8.25;5.03;;;5.80;99.90;;;;;;5114958;27;20047;-77
2021/12/05 12:10:29;;;;;;;10.70;6.32;;;5.80;99.90;;;;;;5116115;27;20874;-78
2021/12/05 12:12:59;;;;;;;10.55;5.80;;;5.80;99.90;;;;;;5117671;27;20054;-77
2021/12/05 12:15:26;;;;;;;11.40;6.35;;;5.80;99.90;;;;;;5115988;27;20823;-77
2021/12/05 12:17:58;;;;;;;14.20;6.55;;;5.80;99.90;;;;;;5114670;27;20047;-78
2021/12/05 12:20:26;;;;;;;9.05;5.93;;;5.80;99.90;;;;;;5123262;27;20054;-77
2021/12/05 12:22:54;;;;;;;11.88;5.97;;;5.80;99.90;;;;;;5127142;27;20073;-78
2021/12/05 12:25:24;;;;;;;10.20;5.85;;;5.80;99.90;;;;;;5139437;27;20050;-78
2021/12/05 12:27:50;;;;;;;11.88;6.53;;;5.80;99.90;;;;;;5122620;27;20695;-78
2021/12/05 12:30:24;;;;;;;12.10;6.25;;;5.80;99.90;;;;;;5139965;27;20127;-77
2021/12/05 12:32:53;;;;;;;11.70;6.55;;;5.90;99.90;;;;;;5140252;27;20047;-78
2021/12/05 12:35:26;;;;;;;11.85;6.43;;;5.90;99.90;;;;;;5120572;27;20043;-77
2021/12/05 12:38:19;;;;;;;11.43;5.97;;;5.90;99.90;;;;;;5124667;27;20469;-78
2021/12/05 12:40:51;;;;;;;12.45;6.40;;;5.90;99.90;;;;;;5130681;27;20306;-77
2021/12/05 12:43:44;;;;;;;11.15;5.68;;;6.00;99.90;;;;;;5140417;27;20042;-77
2021/12/05 12:46:40;;;;;;;8.65;5.70;;;6.10;99.90;;;;;;5137858;27;20122;-77
2021/12/05 12:49:15;;;;;;;10.80;6.38;;;6.20;99.90;;;;;;5127670;27;20135;-75
2021/12/05 12:51:40;;;;;;;10.18;5.70;;;6.30;99.90;;;;;;5129158;27;20486;-78
2021/12/05 12:54:11;;;;;;;16.27;6.70;;;6.30;99.90;;;;;;5135933;27;20034;-75
2021/12/05 12:56:40;;;;;;;9.93;5.88;;;6.50;99.90;;;;;;5120782;27;20114;-76
2021/12/05 12:59:13;;;;;;;7.85;5.22;;;6.50;99.90;;;;;;5123599;27;20051;-76
2021/12/05 13:12:41;;;;;;;12.75;5.45;;;5.70;99.90;;;;;;5139448;27;20063;-75
2021/12/05 13:15:10;;;;;;;9.63;4.88;;;6.40;99.90;;;;;;5125626;27;20043;-76
2021/12/05 13:17:46;;;;;;;10.63;5.68;;;6.30;99.90;;;;;;5121593;27;20057;-76
2021/12/05 13:20:14;;;;;;;9.40;5.60;;;6.30;99.90;;;;;;5136421;27;20050;-76
2021/12/05 13:23:36;;;;;;;12.98;5.88;;;6.30;99.90;;;;;;5138854;27;20137;-76
2021/12/05 13:26:19;;;;;;;8.82;5.15;;;6.30;99.90;;;;;;5049246;28;20048;-75
2021/12/05 13:29:15;;;;;;;8.77;4.87;;;6.40;99.90;;;;;;5113059;27;20050;-76
2021/12/05 13:31:46;;;;;;;9.32;5.18;;;6.40;99.90;;;;;;5117356;27;20051;-76
2021/12/05 13:34:35;;;;;;;9.07;5.40;;;6.40;99.90;;;;;;5118587;27;20094;-76
2021/12/05 13:37:06;;;;;;;15.70;5.18;;;6.40;99.90;;;;;;5117272;27;20070;-76
2021/12/05 13:39:52;;;;;;;7.93;4.93;;;6.40;99.90;;;;;;5138249;27;20876;-76
2021/12/05 13:42:42;;;;;;;10.23;5.03;;;6.30;99.90;;;;;;5119171;27;20046;-75
2021/12/05 13:45:15;;;;;;;10.30;5.70;;;6.30;99.90;;;;;;5138668;27;20054;-75
2021/12/05 13:47:53;;;;;;;;;;;6.30;99.90;;;;;;5137848;27;20050;-70
2021/12/05 13:50:18;;;;;;;8.80;5.07;;;6.30;99.90;;;;;;5138169;27;19930;-76
2021/12/05 13:53:03;;;;;;;5.55;4.50;;;6.30;99.90;;;;;;5115692;27;20046;-76
2021/12/05 13:55:44;;;;;;;11.98;6.80;;;6.30;99.90;;;;;;5109141;27;20058;-76
2021/12/05 13:58:35;;;;;;;7.43;5.13;;;6.40;99.90;;;;;;5102038;27;20051;-76
2021/12/05 14:01:29;;;;;;;11.07;5.30;;;6.30;99.90;;;;;;5118018;27;20146;-76
2021/12/05 14:04:08;;;;;;;8.38;5.03;;;6.40;99.90;;;;;;5108055;27;20067;-76
2021/12/05 14:06:40;;;;;;;9.57;4.50;;;6.30;99.90;;;;;;5117854;27;20093;-75
2021/12/05 14:09:16;;;;;;;6.85;6.03;;;5.60;99.90;;;;;;5137800;27;20747;-76
2021/12/05 14:12:02;;;;;;;10.30;5.40;;;6.30;99.90;;;;;;5136729;27;20049;-76
2021/12/05 14:14:38;;;;;;;7.25;5.43;;;6.30;99.90;;;;;;5137659;27;20053;-77
2021/12/05 14:17:11;;;;;;;8.27;5.53;;;6.20;99.90;;;;;;5137651;27;20145;-77
2021/12/05 14:19:39;;;;;;;10.05;5.18;;;6.20;99.90;;;;;;5138057;27;20054;-77
2021/12/05 14:22:08;;;;;;;4.75;4.30;;;6.20;99.90;;;;;;5118753;27;20170;-77
2021/12/05 14:24:38;;;;;;;9.23;5.55;;;6.10;99.90;;;;;;5137985;27;20057;-76
2021/12/05 14:27:07;;;;;;;7.45;5.35;;;6.10;99.90;;;;;;5118877;27;20061;-75
2021/12/05 14:29:35;;;;;;;8.35;5.25;;;6.10;99.90;;;;;;5137831;27;20043;-76
2021/12/05 14:32:09;;;;;;;6.22;5.38;;;6.10;99.90;;;;;;5136658;27;20045;-77
2021/12/05 14:34:36;;;;;;;8.48;6.30;;;6.10;99.90;;;;;;5138650;27;20743;-77
2021/12/05 14:37:14;;;;;;;8.23;5.80;;;6.10;99.90;;;;;;5137671;27;20046;-76
2021/12/05 14:39:43;;;;;;;7.53;5.57;;;6.10;99.90;;;;;;5136149;27;20087;-77
2021/12/05 14:42:15;;;;;;;11.18;5.57;;;6.10;99.90;;;;;;5134382;27;20043;-76
2021/12/05 14:44:43;;;;;;;7.57;5.35;;;6.10;99.90;;;;;;5136331;27;20039;-77
2021/12/05 14:47:13;;;;;;;7.97;4.93;;;6.10;99.90;;;;;;5103764;27;20043;-76
2021/12/05 14:49:42;;;;;;;9.23;6.13;;;6.20;99.90;;;;;;5137749;27;20810;-76
2021/12/05 14:52:12;;;;;;;9.23;5.63;;;6.10;99.90;;;;;;5136424;27;20107;-77
2021/12/05 14:54:39;;;;;;;9.23;4.90;;;6.10;99.90;;;;;;5125313;27;20058;-77
2021/12/05 14:57:15;;;;;;;7.63;4.78;;;6.10;99.90;;;;;;5104025;27;20062;-76
2021/12/05 14:59:43;;;;;;;6.78;4.82;;;6.10;99.90;;;;;;5117670;27;20129;-76
2021/12/05 15:02:10;;;;;;;10.93;5.68;;;6.00;99.90;;;;;;5137227;27;20042;-76
2021/12/05 15:04:40;;;;;;;5.88;4.68;;;5.80;99.90;;;;;;5119130;27;20118;-75
2021/12/05 15:07:07;;;;;;;8.10;5.25;;;6.00;99.90;;;;;;5136779;27;20103;-76
2021/12/05 15:09:41;;;;;;;9.73;6.78;;;5.90;99.90;;;;;;5132113;27;20039;-77
2021/12/05 15:12:06;;;;;;;8.73;4.78;;;5.90;99.90;;;;;;5126480;27;20043;-76
2021/12/05 15:14:34;;;;;;;8.80;6.03;;;5.90;99.90;;;;;;5135430;27;20135;-77
2021/12/05 15:17:14;;;;;;;7.28;5.13;;;5.80;99.90;;;;;;5125482;27;20218;-76
2021/12/05 15:19:44;;;;;;;7.75;6.65;;;5.80;99.90;;;;;;5137559;27;20046;-77
2021/12/05 15:22:12;;;;;;;10.75;6.20;;;5.80;99.90;;;;;;5117276;27;20042;-76
2021/12/05 15:24:39;;;;;;;7.95;5.30;;;5.80;99.90;;;;;;5138041;27;20119;-76
2021/12/05 15:27:13;;;;;;;8.13;4.72;;;5.80;99.90;;;;;;5116732;27;20070;-76
2021/12/05 15:29:49;;;;;;;10.80;5.95;;;5.80;99.90;;;;;;5135736;27;20042;-76
2021/12/05 15:32:17;;;;;;;9.45;6.20;;;5.80;99.90;;;;;;5118280;27;20050;-76
2021/12/05 15:34:43;;;;;;;7.18;5.47;;;5.70;99.90;;;;;;5134831;27;20086;-77
2021/12/05 15:37:11;;;;;;;9.75;6.05;;;5.80;99.90;;;;;;5136191;27;20564;-75
2021/12/05 15:39:42;;;;;;;8.32;5.43;;;5.80;99.90;;;;;;5121092;27;20047;-71
2021/12/05 15:42:21;;;;;;;16.05;5.35;;;5.70;99.90;;;;;;5136350;27;20114;-73
2021/12/05 15:44:49;;;;;;;15.70;7.03;;;5.70;99.90;;;;;;5132011;27;20099;-77
2021/12/05 15:47:21;;;;;;;10.63;6.10;;;5.70;99.90;;;;;;5135900;27;20047;-77
2021/12/05 15:49:57;;;;;;;10.40;6.75;;;5.70;99.90;;;;;;5137638;27;20051;-76
2021/12/05 15:52:36;;;;;;;12.60;7.07;;;5.70;99.90;;;;;;5137490;27;20556;-77
2021/12/05 15:55:29;;;;;;;11.13;6.65;;;5.70;99.90;;;;;;5104727;27;20074;-76
2021/12/05 15:58:24;;;;;;;9.20;6.40;;;5.70;99.90;;;;;;5089625;27;20068;-76
2021/12/05 16:00:52;;;;;;;9.40;6.35;;;5.70;99.90;;;;;;5142518;27;20778;-76
2021/12/05 16:03:26;;;;;;;13.48;7.72;;;5.70;99.90;;;;;;5139051;27;20049;-76
2021/12/05 16:05:56;;;;;;;13.45;7.80;;;5.60;99.90;;;;;;5120811;27;20599;-76
2021/12/05 16:08:23;;;;;;;13.75;7.68;;;5.60;99.90;;;;;;5126467;27;20530;-76
2021/12/05 16:10:57;;;;;;;14.15;7.28;;;5.50;99.90;;;;;;5113406;27;20049;-76
2021/12/05 16:13:25;;;;;;;13.20;7.63;;;5.50;99.90;;;;;;5133175;27;20084;-76
2021/12/05 16:15:54;;;;;;;10.65;7.22;;;5.50;99.90;;;;;;5106419;27;20038;-77
2021/12/05 16:18:32;;;;;;;10.68;7.00;;;5.40;99.90;;;;;;5119678;27;20046;-76
2021/12/05 16:21:02;;;;;;;16.10;8.20;;;5.50;99.90;;;;;;5122245;27;20087;-76
2021/12/05 16:23:34;;;;;;;10.32;7.32;;;5.40;99.90;;;;;;5136677;27;20885;-76
2021/12/05 16:26:14;;;;;;;10.73;7.00;;;5.50;99.90;;;;;;5125192;27;20042;-76
2021/12/05 16:28:41;;;;;;;14.93;8.80;;;5.40;99.90;;;;;;5121755;27;20042;-76
2021/12/05 16:31:17;;;;;;;15.23;9.15;;;5.40;99.90;;;;;;5138685;27;20054;-76
2021/12/05 16:33:48;;;;;;;17.23;9.18;;;5.40;99.90;;;;;;5100655;27;20112;-76
2021/12/05 16:36:14;;;;;;;14.80;9.65;;;5.40;99.90;;;;;;5114334;27;20046;-76
2021/12/05 16:38:43;;;;;;;17.75;10.32;;;5.40;99.90;;;;;;5118621;27;20159;-76
2021/12/05 16:41:13;;;;;;;20.63;10.70;;;5.40;99.90;;;;;;5120009;27;20095;-76
2021/12/05 16:43:57;;;;;;;17.20;11.57;;;5.40;99.90;;;;;;5138615;27;20141;-77
2021/12/05 16:46:28;;;;;;;29.60;12.68;;;5.40;99.90;;;;;;5137007;27;20051;-77
2021/12/05 16:48:57;;;;;;;16.35;10.35;;;5.40;99.90;;;;;;5119476;27;20775;-75
2021/12/05 16:51:34;;;;;;;19.35;10.60;;;5.30;99.90;;;;;;5138108;27;20050;-76
2021/12/05 16:54:16;;;;;;;18.50;11.10;;;5.30;99.90;;;;;;5138328;27;20514;-76
2021/12/05 16:56:57;;;;;;;18.08;10.30;;;5.20;99.90;;;;;;5136053;27;20054;-77
2021/12/05 16:59:30;;;;;;;23.38;11.55;;;5.20;99.90;;;;;;5119212;27;20473;-77
2021/12/05 17:02:08;;;;;;;19.65;11.48;;;5.20;99.90;;;;;;5120346;27;20141;-77
2021/12/05 17:05:06;;;;;;;18.30;11.65;;;5.20;99.90;;;;;;5125837;27;20043;-76
2021/12/05 17:10:38;;;;;;;20.10;11.52;;;5.20;99.90;;;;;;5133280;27;20071;-76
2021/12/05 17:13:09;;;;;;;21.08;10.63;;;5.20;99.90;;;;;;5124268;27;20053;-76
2021/12/05 17:15:42;;;;;;;24.83;12.35;;;5.10;99.90;;;;;;5120560;27;20046;-76
2021/12/05 17:18:19;;;;;;;18.73;10.82;;;5.10;99.90;;;;;;5117484;27;20091;-76
2021/12/05 17:20:51;;;;;;;19.08;10.60;;;5.10;99.90;;;;;;5137188;27;20870;-76
2021/12/05 17:23:43;;;;;;;17.63;10.63;;;5.10;99.90;;;;;;5138646;27;20629;-76
2021/12/05 17:26:13;;;;;;;18.20;11.45;;;5.10;99.90;;;;;;5119698;27;20050;-76
2021/12/05 17:28:49;;;;;;;22.98;12.82;;;5.10;99.90;;;;;;5137279;27;20043;-76
2021/12/05 17:31:21;;;;;;;19.48;11.68;;;5.10;99.90;;;;;;5139004;27;20797;-76
2021/12/05 17:33:52;;;;;;;18.70;10.70;;;5.10;99.90;;;;;;5119113;27;20055;-75
2021/12/05 17:36:30;;;;;;;14.00;9.93;;;5.10;99.90;;;;;;5139190;27;20043;-76
2021/12/05 17:39:23;;;;;;;16.08;10.88;;;5.10;99.90;;;;;;5137369;27;20797;-75
2021/12/05 17:41:52;;;;;;;16.80;11.00;;;5.10;99.90;;;;;;5131060;27;20718;-76
2021/12/05 17:44:18;;;;;;;20.52;10.85;;;5.00;99.90;;;;;;5119287;27;20150;-75
2021/12/05 17:46:47;;;;;;;18.33;10.45;;;5.00;99.90;;;;;;5137981;27;20042;-76
2021/12/05 17:49:14;;;;;;;15.73;10.32;;;5.00;99.90;;;;;;5138150;27;20039;-75
2021/12/05 17:51:41;;;;;;;20.92;12.00;;;5.00;99.90;;;;;;5105155;27;20062;-76
2021/12/05 17:54:10;;;;;;;14.07;10.15;;;4.90;99.90;;;;;;5138287;27;20069;-76
2021/12/05 17:56:43;;;;;;;16.85;11.18;;;4.90;99.90;;;;;;5130878;27;20804;-76
2021/12/05 17:59:13;;;;;;;15.40;9.82;;;4.90;99.90;;;;;;5118602;27;20535;-76
2021/12/05 18:04:30;;;;;;;17.48;10.85;;;4.80;99.90;;;;;;5137701;27;20058;-76
2021/12/05 18:06:58;;;;;;;21.55;12.45;;;4.80;99.90;;;;;;5136911;27;20080;-76
2021/12/05 18:09:23;;;;;;;16.45;11.05;;;4.80;99.90;;;;;;5138544;27;20068;-76
2021/12/05 18:11:50;;;;;;;15.65;10.02;;;4.80;99.90;;;;;;5120075;27;20047;-76
2021/12/05 18:14:16;;;;;;;12.73;10.15;;;4.80;99.90;;;;;;5119711;27;20046;-76
2021/12/05 18:16:42;;;;;;;14.23;9.98;;;4.80;99.90;;;;;;5136552;27;20133;-76
2021/12/05 18:19:11;;;;;;;15.95;10.35;;;4.70;99.90;;;;;;5137980;27;20110;-76
2021/12/05 18:21:38;;;;;;;15.45;9.90;;;4.70;99.90;;;;;;5120440;27;20410;-75
2021/12/05 18:24:13;;;;;;;16.52;10.60;;;4.70;99.90;;;;;;5137130;27;20046;-75
2021/12/05 18:26:40;;;;;;;16.45;10.25;;;4.60;99.90;;;;;;5136127;27;20952;-75
2021/12/05 18:29:08;;;;;;;16.63;10.30;;;4.60;99.90;;;;;;5136210;27;20042;-75
2021/12/05 18:31:35;;;;;;;16.42;10.15;;;4.60;99.90;;;;;;5134862;27;20043;-75
2021/12/05 18:34:07;;;;;;;16.60;10.57;;;4.60;99.90;;;;;;5135043;27;20053;-76
2021/12/05 18:36:34;;;;;;;15.38;10.13;;;4.60;99.90;;;;;;5127225;27;20118;-76
2021/12/05 18:39:01;;;;;;;15.32;9.68;;;4.50;99.90;;;;;;5130691;27;20058;-76
2021/12/05 18:41:28;;;;;;;13.50;10.05;;;4.60;99.90;;;;;;5118383;27;20047;-76
2021/12/05 18:43:55;;;;;;;15.68;9.63;;;4.50;99.90;;;;;;5117482;27;20493;-75
2021/12/05 18:46:21;;;;;;;14.95;11.25;;;4.60;99.90;;;;;;5121161;27;20043;-76
2021/12/05 18:48:47;;;;;;;14.18;10.68;;;4.60;99.90;;;;;;5136435;27;20046;-75